createdAt,value
2023-04-23T00:00:54.772Z,999.04
2023-04-23T00:04:02.371Z,999.03
2023-04-23T00:07:09.519Z,999.04
2023-04-23T00:10:18.935Z,998.99
2023-04-23T00:13:26.297Z,998.99
2023-04-23T00:16:33.829Z,998.95
2023-04-23T00:19:43.129Z,998.96
2023-04-23T00:22:50.675Z,998.99
2023-04-23T00:25:58.136Z,998.99
2023-04-23T00:29:07.001Z,998.91
2023-04-23T00:32:15.052Z,998.96
2023-04-23T00:35:22.308Z,998.91
2023-04-23T00:38:30.462Z,998.97
2023-04-23T00:41:38.908Z,998.96
2023-04-23T00:44:46.941Z,998.95
2023-04-23T00:47:54.241Z,998.98
2023-04-23T00:51:03.218Z,998.99
2023-04-23T00:54:10.675Z,998.91
2023-04-23T00:57:18.017Z,998.92
2023-04-23T01:00:26.846Z,998.95
2023-04-23T01:03:34.643Z,998.95
2023-04-23T01:06:41.730Z,998.85
2023-04-23T01:09:51.371Z,998.83
2023-04-23T01:12:58.805Z,998.87
2023-04-23T01:16:06.307Z,998.89
2023-04-23T01:19:13.674Z,998.93
2023-04-23T01:22:22.884Z,998.84
2023-04-23T01:25:30.690Z,998.85
2023-04-23T01:28:38.553Z,998.83
2023-04-23T01:31:47.068Z,998.84
2023-04-23T01:34:54.926Z,998.80
2023-04-23T01:38:02.404Z,998.83
2023-04-23T01:41:11.333Z,998.83
2023-04-23T01:44:18.798Z,998.77
2023-04-23T01:47:26.403Z,998.75
2023-04-23T01:50:35.343Z,998.82
2023-04-23T01:53:43.310Z,998.83
2023-04-23T01:56:50.369Z,998.78
2023-04-23T01:59:58.218Z,998.81
2023-04-23T02:03:06.724Z,998.77
2023-04-23T02:06:14.686Z,998.71
2023-04-23T02:09:22.033Z,998.84
2023-04-23T02:12:30.966Z,998.82
2023-04-23T02:15:38.521Z,998.83
2023-04-23T02:18:46.501Z,998.87
2023-04-23T02:21:55.056Z,998.86
2023-04-23T02:25:02.796Z,998.87
2023-04-23T02:28:09.765Z,998.82
2023-04-23T02:31:19.258Z,998.87
2023-04-23T02:34:26.718Z,998.86
2023-04-23T02:37:33.936Z,998.93
2023-04-23T02:40:41.331Z,998.88
2023-04-23T02:43:50.628Z,998.96
2023-04-23T02:46:58.273Z,999.03
2023-04-23T02:50:05.923Z,999.02
2023-04-23T02:53:14.759Z,998.97
2023-04-23T02:56:22.306Z,998.99
2023-04-23T02:59:30.449Z,998.97
2023-04-23T03:02:38.825Z,999.02
2023-04-23T03:05:46.818Z,999.06
2023-04-23T03:08:54.267Z,999.08
2023-04-23T03:12:03.173Z,999.06
2023-04-23T03:15:10.658Z,999.11
2023-04-23T03:18:18.206Z,999.06
2023-04-23T03:21:26.984Z,999.11
2023-04-23T03:24:34.743Z,999.10
2023-04-23T03:27:41.735Z,999.14
2023-04-23T03:30:49.724Z,999.16
2023-04-23T03:33:58.704Z,999.13
2023-04-23T03:37:06.097Z,999.23
2023-04-23T03:40:13.450Z,999.24
2023-04-23T03:43:22.412Z,999.27
2023-04-23T03:46:29.903Z,999.28
2023-04-23T03:49:37.689Z,999.23
2023-04-23T03:52:46.205Z,999.22
2023-04-23T03:55:53.786Z,999.27
2023-04-23T03:59:01.422Z,999.29
2023-04-23T04:02:10.349Z,999.34
2023-04-23T04:05:18.091Z,999.32
2023-04-23T04:08:25.562Z,999.37
2023-04-23T04:11:32.993Z,999.41
2023-04-23T04:14:42.619Z,999.44
2023-04-23T04:17:50.358Z,999.47
2023-04-23T04:20:57.905Z,999.50
2023-04-23T04:24:07.150Z,999.54
2023-04-23T04:27:14.102Z,999.54
2023-04-23T04:30:22.118Z,999.58
2023-04-23T04:33:30.652Z,999.59
2023-04-23T04:36:38.487Z,999.66
2023-04-23T04:39:45.920Z,999.70
2023-04-23T04:42:54.675Z,999.74
2023-04-23T04:46:02.202Z,999.76
2023-04-23T04:49:10.300Z,999.80
2023-04-23T04:52:17.394Z,999.76
2023-04-23T04:55:27.145Z,999.82
2023-04-23T04:58:34.175Z,999.83
2023-04-23T05:01:42.064Z,999.83
2023-04-23T05:04:51.477Z,999.87
2023-04-23T05:07:59.125Z,999.89
2023-04-23T05:11:06.488Z,999.91
2023-04-23T05:14:15.780Z,999.92
2023-04-23T05:17:23.051Z,999.99
2023-04-23T05:20:30.913Z,1000.04
2023-04-23T05:23:39.542Z,1000.03
2023-04-23T05:26:47.631Z,1000.00
2023-04-23T05:29:55.118Z,1000.05
2023-04-23T05:33:02.930Z,1000.09
2023-04-23T05:36:11.544Z,1000.15
2023-04-23T05:39:19.600Z,1000.15
2023-04-23T05:42:26.659Z,1000.15
2023-04-23T05:45:36.084Z,1000.12
2023-04-23T05:48:43.172Z,1000.11
2023-04-23T05:51:51.210Z,1000.20
2023-04-23T05:55:00.225Z,1000.22
2023-04-23T05:58:07.837Z,1000.26
2023-04-23T06:01:15.456Z,1000.30
2023-04-23T06:04:25.101Z,1000.29
2023-04-23T06:07:32.302Z,1000.33
2023-04-23T06:10:40.370Z,1000.35
2023-04-23T06:13:48.823Z,1000.30
2023-04-23T06:16:56.726Z,1000.23
2023-04-23T06:20:04.500Z,1000.31
2023-04-23T06:23:12.908Z,1000.36
2023-04-23T06:26:21.537Z,1000.34
2023-04-23T06:29:29.682Z,1000.32
2023-04-23T06:32:36.919Z,1000.42
2023-04-23T06:35:46.194Z,1000.36
2023-04-23T06:38:53.232Z,1000.35
2023-04-23T06:42:01.171Z,1000.42
2023-04-23T06:45:10.092Z,1000.37
2023-04-23T06:48:19.431Z,1000.43
2023-04-23T06:51:27.010Z,1000.48
2023-04-23T06:54:36.368Z,1000.38
2023-04-23T06:57:43.707Z,1000.43
2023-04-23T07:00:51.353Z,1000.36
2023-04-23T07:03:58.899Z,1000.41
2023-04-23T07:07:08.768Z,1000.43
2023-04-23T07:10:18.018Z,1000.38
2023-04-23T07:13:25.529Z,1000.41
2023-04-23T07:16:34.755Z,1000.38
2023-04-23T07:19:41.958Z,1000.41
2023-04-23T07:22:49.311Z,1000.43
2023-04-23T07:25:58.324Z,1000.36
2023-04-23T07:29:05.700Z,1000.24
2023-04-23T07:32:14.333Z,1000.23
2023-04-23T07:35:22.945Z,1000.11
2023-04-23T07:38:30.540Z,1000.17
2023-04-23T07:41:38.071Z,1000.14
2023-04-23T07:44:46.074Z,1000.18
2023-04-23T07:47:54.626Z,1000.11
2023-04-23T07:51:02.653Z,1000.10
2023-04-23T07:54:10.829Z,1000.13
2023-04-23T07:57:19.438Z,1000.00
2023-04-23T08:00:27.360Z,1000.01
2023-04-23T08:03:35.204Z,1000.06
2023-04-23T08:06:43.827Z,1000.00
2023-04-23T08:09:51.195Z,1000.00
2023-04-23T08:12:58.960Z,1000.04
2023-04-23T08:16:07.611Z,1000.08
2023-04-23T08:19:15.498Z,1000.05
2023-04-23T08:22:23.058Z,1000.03
2023-04-23T08:25:32.127Z,1000.03
2023-04-23T08:28:39.861Z,1000.02
2023-04-23T08:31:47.454Z,999.99
2023-04-23T08:34:55.267Z,1000.02
2023-04-23T08:38:04.415Z,1000.02
2023-04-23T08:41:12.237Z,999.95
2023-04-23T08:44:20.004Z,1000.01
2023-04-23T08:47:28.693Z,999.95
2023-04-23T08:50:36.853Z,999.93
2023-04-23T08:53:44.832Z,999.98
2023-04-23T08:56:53.504Z,999.92
2023-04-23T09:00:01.597Z,1000.00
2023-04-23T09:03:09.477Z,999.98
2023-04-23T09:06:18.559Z,999.94
2023-04-23T09:09:26.603Z,999.95
2023-04-23T09:12:34.533Z,999.92
2023-04-23T09:15:41.894Z,999.90
2023-04-23T09:18:50.958Z,999.89
2023-04-23T09:21:58.426Z,999.92
2023-04-23T09:25:05.863Z,999.86
2023-04-23T09:28:15.000Z,999.84
2023-04-23T09:31:22.306Z,999.76
2023-04-23T09:34:29.712Z,999.72
2023-04-23T09:37:29.421Z,999.81
2023-04-23T09:40:36.686Z,999.80
2023-04-23T09:43:44.029Z,999.78
2023-04-23T09:46:52.900Z,999.74
2023-04-23T09:50:00.478Z,999.78
2023-04-23T09:53:07.822Z,999.73
2023-04-23T09:56:15.316Z,999.63
2023-04-23T09:59:39.483Z,999.68
2023-04-23T10:02:29.070Z,999.66
2023-04-23T10:05:45.402Z,999.66
2023-04-23T10:08:43.120Z,999.58
2023-04-23T10:11:51.039Z,999.56
2023-04-23T10:14:58.864Z,999.67
2023-04-23T10:18:07.808Z,999.63
2023-04-23T10:21:15.134Z,999.58
2023-04-23T10:24:23.029Z,999.61
2023-04-23T10:27:48.441Z,999.65
2023-04-23T10:30:36.386Z,999.59
2023-04-23T10:33:56.028Z,999.61
2023-04-23T10:36:49.003Z,999.53
2023-04-23T10:39:58.083Z,999.45
2023-04-23T10:43:05.584Z,999.49
2023-04-23T10:46:13.264Z,999.38
2023-04-23T10:49:22.021Z,999.34
2023-04-23T10:52:29.358Z,999.29
2023-04-23T10:55:37.122Z,999.19
2023-04-23T10:58:45.574Z,999.15
2023-04-23T11:01:53.432Z,999.11
2023-04-23T11:05:01.375Z,999.07
2023-04-23T11:08:19.429Z,999.23
2023-04-23T11:11:15.716Z,999.21
2023-04-23T11:14:23.324Z,999.22
2023-04-23T11:17:31.129Z,999.21
2023-04-23T11:20:32.317Z,999.17
2023-04-23T11:23:42.345Z,999.32
2023-04-23T11:26:50.196Z,999.30
2023-04-23T11:30:00.058Z,999.22
2023-04-23T11:33:08.151Z,999.14
2023-04-23T11:36:16.170Z,999.15
2023-04-23T11:39:24.583Z,999.20
2023-04-23T11:42:32.287Z,999.11
2023-04-23T11:45:40.152Z,999.06
2023-04-23T11:48:48.648Z,999.07
2023-04-23T11:51:56.152Z,998.93
2023-04-23T11:55:03.589Z,998.97
2023-04-23T11:58:12.667Z,998.84
2023-04-23T12:01:20.686Z,998.91
2023-04-23T12:04:28.559Z,998.87
2023-04-23T12:07:36.192Z,998.93
2023-04-23T12:10:46.021Z,998.90
2023-04-23T12:13:53.246Z,998.93
2023-04-23T12:17:00.732Z,998.89
2023-04-23T12:20:09.511Z,998.93
2023-04-23T12:23:17.353Z,998.89
2023-04-23T12:26:24.762Z,998.79
2023-04-23T12:29:33.628Z,998.87
2023-04-23T12:32:41.178Z,998.78
2023-04-23T12:35:48.549Z,998.70
2023-04-23T12:38:57.265Z,998.68
2023-04-23T12:42:05.182Z,998.47
2023-04-23T12:45:13.232Z,998.48
2023-04-23T12:48:20.539Z,998.53
2023-04-23T12:51:29.495Z,998.50
2023-04-23T12:54:36.508Z,998.49
2023-04-23T12:57:44.265Z,998.43
2023-04-23T13:00:53.243Z,998.45
2023-04-23T13:04:00.382Z,998.45
2023-04-23T13:07:08.129Z,998.43
2023-04-23T13:10:17.048Z,998.48
2023-04-23T13:13:24.183Z,998.44
2023-04-23T13:16:31.960Z,998.43
2023-04-23T13:19:40.745Z,998.65
2023-04-23T13:22:48.098Z,998.60
2023-04-23T13:25:55.873Z,998.66
2023-04-23T13:29:03.450Z,998.66
2023-04-23T13:32:13.366Z,998.70
2023-04-23T13:35:20.688Z,998.69
2023-04-23T13:38:28.120Z,998.66
2023-04-23T13:41:37.175Z,998.60
2023-04-23T13:44:44.810Z,998.53
2023-04-23T13:47:52.431Z,998.32
2023-04-23T13:51:01.818Z,998.20
2023-04-23T13:54:08.868Z,998.17
2023-04-23T13:57:17.337Z,998.19
2023-04-23T14:00:26.799Z,998.00
2023-04-23T14:03:34.010Z,997.85
2023-04-23T14:06:41.981Z,997.87
2023-04-23T14:09:51.433Z,997.80
2023-04-23T14:12:58.560Z,997.80
2023-04-23T14:16:06.332Z,997.70
2023-04-23T14:19:13.788Z,997.64
2023-04-23T14:22:22.469Z,997.59
2023-04-23T14:25:30.413Z,997.60
2023-04-23T14:28:37.592Z,997.59
2023-04-23T14:31:46.758Z,997.56
2023-04-23T14:34:54.759Z,997.52
2023-04-23T14:38:01.843Z,997.52
2023-04-23T14:41:10.775Z,997.46
2023-04-23T14:44:18.328Z,997.42
2023-04-23T14:47:25.840Z,997.34
2023-04-23T14:50:34.900Z,997.35
2023-04-23T14:53:42.499Z,997.33
2023-04-23T14:56:50.597Z,997.25
2023-04-23T14:59:58.062Z,997.29
2023-04-23T15:03:07.115Z,997.29
2023-04-23T15:06:15.054Z,997.28
2023-04-23T15:09:22.740Z,997.22
2023-04-23T15:12:31.611Z,997.15
2023-04-23T15:15:44.448Z,997.18
2023-04-23T15:18:41.329Z,997.23
2023-04-23T15:21:50.452Z,997.23
2023-04-23T15:24:58.083Z,997.20
2023-04-23T15:28:05.202Z,997.19
2023-04-23T15:31:14.829Z,997.30
2023-04-23T15:34:22.219Z,997.33
2023-04-23T15:37:29.195Z,997.37
2023-04-23T15:40:37.024Z,997.31
2023-04-23T15:43:45.880Z,997.31
2023-04-23T15:46:53.217Z,997.33
2023-04-23T15:50:01.066Z,997.24
2023-04-23T15:53:09.746Z,997.14
2023-04-23T15:56:17.223Z,997.10
2023-04-23T15:59:25.017Z,997.06
2023-04-23T16:02:34.102Z,996.94
2023-04-23T16:05:41.732Z,996.81
2023-04-23T16:08:49.572Z,996.83
2023-04-23T16:11:58.653Z,996.76
2023-04-23T16:15:06.110Z,996.71
2023-04-23T16:18:13.353Z,996.71
2023-04-23T16:21:21.485Z,996.72
2023-04-23T16:24:30.265Z,996.76
2023-04-23T16:27:37.471Z,996.70
2023-04-23T16:30:45.857Z,996.67
2023-04-23T16:33:55.754Z,996.70
2023-04-23T16:37:03.171Z,996.64
2023-04-23T16:40:11.637Z,996.62
2023-04-23T16:43:20.573Z,996.62
2023-04-23T16:46:28.312Z,996.54
2023-04-23T16:49:36.252Z,996.48
2023-04-23T16:52:45.671Z,996.44
2023-04-23T16:55:53.507Z,996.46
2023-04-23T16:59:01.526Z,996.46
2023-04-23T17:02:09.343Z,996.42
2023-04-23T17:05:18.496Z,996.43
2023-04-23T17:08:26.237Z,996.38
2023-04-23T17:11:34.391Z,996.31
2023-04-23T17:14:43.731Z,996.31
2023-04-23T17:17:51.130Z,996.21
2023-04-23T17:20:58.615Z,996.21
2023-04-23T17:24:08.132Z,996.08
2023-04-23T17:27:15.420Z,996.08
2023-04-23T17:30:23.671Z,996.09
2023-04-23T17:33:32.429Z,996.04
2023-04-23T17:36:39.836Z,996.04
2023-04-23T17:39:47.410Z,996.06
2023-04-23T17:42:55.940Z,996.05
2023-04-23T17:46:03.796Z,996.03
2023-04-23T17:49:11.265Z,996.06
2023-04-23T17:52:18.493Z,995.98
2023-04-23T17:55:27.244Z,995.97
2023-04-23T17:58:36.036Z,995.98
2023-04-23T18:01:45.071Z,995.92
2023-04-23T18:04:54.145Z,995.89
2023-04-23T18:08:01.492Z,995.97
2023-04-23T18:11:09.570Z,996.01
2023-04-23T18:14:18.600Z,995.95
2023-04-23T18:17:26.452Z,995.88
2023-04-23T18:20:34.530Z,995.83
2023-04-23T18:23:43.638Z,995.86
2023-04-23T18:26:51.061Z,995.85
2023-04-23T18:29:59.292Z,995.93
2023-04-23T18:33:06.849Z,995.89
2023-04-23T18:36:15.639Z,995.84
2023-04-23T18:39:23.595Z,995.85
2023-04-23T18:42:31.240Z,995.77
2023-04-23T18:45:40.044Z,995.75
2023-04-23T18:48:48.066Z,995.79
2023-04-23T18:51:55.727Z,995.82
2023-04-23T18:55:04.836Z,995.82
2023-04-23T18:58:12.908Z,995.76
2023-04-23T19:01:20.802Z,995.66
2023-04-23T19:04:30.380Z,995.71
2023-04-23T19:07:38.013Z,995.72
2023-04-23T19:10:46.223Z,995.62
2023-04-23T19:13:53.881Z,995.69
2023-04-23T19:17:02.916Z,995.70
2023-04-23T19:20:10.663Z,995.71
2023-04-23T19:23:18.202Z,995.70
2023-04-23T19:26:27.272Z,995.57
2023-04-23T19:29:35.265Z,995.51
2023-04-23T19:32:43.148Z,995.52
2023-04-23T19:35:52.141Z,995.55
2023-04-23T19:39:00.221Z,995.56
2023-04-23T19:42:07.978Z,995.50
2023-04-23T19:45:16.914Z,995.47
2023-04-23T19:48:24.768Z,995.51
2023-04-23T19:51:31.787Z,995.50
2023-04-23T19:54:39.131Z,995.43
2023-04-23T19:57:48.264Z,995.36
2023-04-23T20:00:55.654Z,995.30
2023-04-23T20:04:03.014Z,995.22
2023-04-23T20:07:11.798Z,995.21
2023-04-23T20:10:18.893Z,995.10
2023-04-23T20:13:26.321Z,995.17
2023-04-23T20:16:35.184Z,995.09
2023-04-23T20:19:44.186Z,995.08
2023-04-23T20:22:52.262Z,995.07
2023-04-23T20:26:02.309Z,995.13
2023-04-23T20:29:10.012Z,995.06
2023-04-23T20:32:17.724Z,995.03
2023-04-23T20:35:27.240Z,995.06
2023-04-23T20:38:34.740Z,995.03
2023-04-23T20:41:42.042Z,994.92
2023-04-23T20:44:49.954Z,994.87
2023-04-23T20:47:59.917Z,994.83
2023-04-23T20:51:07.256Z,994.75
2023-04-23T20:54:14.964Z,994.70
2023-04-23T20:57:24.540Z,994.60
2023-04-23T21:00:31.568Z,994.58
2023-04-23T21:03:39.618Z,994.46
2023-04-23T21:06:48.385Z,994.43
2023-04-23T21:09:55.839Z,994.35
2023-04-23T21:13:03.587Z,994.39
2023-04-23T21:16:12.494Z,994.40
2023-04-23T21:19:19.962Z,994.48
2023-04-23T21:22:27.826Z,994.43
2023-04-23T21:25:35.238Z,994.45
2023-04-23T21:28:44.061Z,994.37
2023-04-23T21:31:51.520Z,994.24
2023-04-23T21:34:59.337Z,994.24
2023-04-23T21:38:08.126Z,994.21
2023-04-23T21:41:15.570Z,994.19
2023-04-23T21:44:23.372Z,994.11
2023-04-23T21:47:32.270Z,994.19
2023-04-23T21:50:39.602Z,994.43
2023-04-23T21:53:47.719Z,994.61
2023-04-23T21:56:56.759Z,994.92
2023-04-23T22:00:04.310Z,994.74
2023-04-23T22:03:15.460Z,994.72
2023-04-23T22:06:16.513Z,994.62
2023-04-23T22:09:25.799Z,994.56
2023-04-23T22:12:33.545Z,994.56
2023-04-23T22:15:40.790Z,994.54
2023-04-23T22:18:50.203Z,994.55
2023-04-23T22:21:58.166Z,994.58
2023-04-23T22:25:05.223Z,994.58
2023-04-23T22:28:14.472Z,994.62
2023-04-23T22:31:21.951Z,994.66
2023-04-23T22:34:29.497Z,994.56
2023-04-23T22:37:38.873Z,994.50
2023-04-23T22:40:46.443Z,994.48
2023-04-23T22:43:54.338Z,994.44
2023-04-23T22:47:01.902Z,994.50
2023-04-23T22:50:10.688Z,994.54
2023-04-23T22:53:18.613Z,994.52
2023-04-23T22:56:25.955Z,994.43
2023-04-23T22:59:34.751Z,994.44
2023-04-23T23:02:42.866Z,994.44
2023-04-23T23:05:49.847Z,994.45
2023-04-23T23:08:59.224Z,994.26
2023-04-23T23:12:06.955Z,994.30
2023-04-23T23:15:14.005Z,994.29
2023-04-23T23:18:23.345Z,994.38
2023-04-23T23:21:30.974Z,994.29
2023-04-23T23:24:38.041Z,994.27
2023-04-23T23:27:47.284Z,994.23
2023-04-23T23:30:54.848Z,994.05
2023-04-23T23:34:02.013Z,994.04
2023-04-23T23:37:09.953Z,994.09
2023-04-23T23:40:18.802Z,994.09
2023-04-23T23:43:26.232Z,994.09
2023-04-23T23:46:34.030Z,994.03
2023-04-23T23:49:42.732Z,994.03
2023-04-23T23:52:50.862Z,993.95
2023-04-23T23:55:58.704Z,993.97
2023-04-23T23:59:07.108Z,993.92
